LIRS/GRS METAR and TAF weather

Enter ICAO airport designator
Station Type Date Time Source
LIRS METAR 2019/06/19 01:55 UTC NOAA

LIRS 190155Z VRB01KT CAVOK 15/14 Q1013


Station Type Date Time Source
LIRS Decoded METAR 2019/06/19 01:55 UTC NOAA

Grosseto, Italy (LIRS) 42-45N 011-04E 7M
Jun 18, 2019 - 09:55 PM EDT / 2019.06.19 0155 UTC
Wind: Variable at 1 MPH (1 KT):0
Visibility: greater than 7 mile(s):0
Temperature: 59 F (15 C)
Dew Point: 57 F (14 C)
Relative Humidity: 93%
Pressure (altimeter): 29.91 in. Hg (1013 hPa)
ob: LIRS 190155Z VRB01KT CAVOK 15/14 Q1013
cycle: 2

Station Type Date Time Source
LIRS TAF 2018/06/29 09:24 UTC NOAA

TAF TAF LIRS 290800Z 2909/2921 VRB03KT 9999 FEW030
BECMG 2911/2913 24015KT

Example: see airport list